sensor_id;sensor_type;location;lat;lon;timestamp;pressure;altitude;pressure_sealevel;temperature;humidity
64095;BME280;50353;51.420;5.682;2022-11-03T00:02:22;101247.81;;;12.75;71.99
64095;BME280;50353;51.420;5.682;2022-11-03T00:04:48;101242.44;;;13.18;71.08
64095;BME280;50353;51.420;5.682;2022-11-03T00:07:19;101235.69;;;12.57;73.17
64095;BME280;50353;51.420;5.682;2022-11-03T00:09:44;101237.00;;;12.78;72.24
64095;BME280;50353;51.420;5.682;2022-11-03T00:12:10;101236.22;;;12.91;71.93
64095;BME280;50353;51.420;5.682;2022-11-03T00:14:35;101226.47;;;12.91;71.16
64095;BME280;50353;51.420;5.682;2022-11-03T00:17:00;101231.91;;;12.61;72.89
64095;BME280;50353;51.420;5.682;2022-11-03T00:19:25;101227.72;;;12.57;72.85
64095;BME280;50353;51.420;5.682;2022-11-03T00:21:51;101234.72;;;12.87;71.18
64095;BME280;50353;51.420;5.682;2022-11-03T00:24:16;101229.59;;;12.98;71.24
64095;BME280;50353;51.420;5.682;2022-11-03T00:26:42;101231.69;;;12.78;71.88
64095;BME280;50353;51.420;5.682;2022-11-03T00:29:11;101216.34;;;12.69;72.16
64095;BME280;50353;51.420;5.682;2022-11-03T00:31:39;101211.09;;;12.55;73.08
64095;BME280;50353;51.420;5.682;2022-11-03T00:34:04;101219.09;;;12.67;72.58
64095;BME280;50353;51.420;5.682;2022-11-03T00:36:38;101203.66;;;12.74;71.55
64095;BME280;50353;51.420;5.682;2022-11-03T00:39:04;101199.13;;;12.62;72.17
64095;BME280;50353;51.420;5.682;2022-11-03T00:41:30;101195.91;;;12.71;71.86
64095;BME280;50353;51.420;5.682;2022-11-03T00:43:56;101190.28;;;12.76;71.49
64095;BME280;50353;51.420;5.682;2022-11-03T00:46:23;101192.66;;;12.80;71.95
64095;BME280;50353;51.420;5.682;2022-11-03T00:48:49;101189.38;;;13.04;70.80
64095;BME280;50353;51.420;5.682;2022-11-03T00:51:26;101173.19;;;12.94;71.65
64095;BME280;50353;51.420;5.682;2022-11-03T00:53:59;101170.75;;;13.18;70.21
64095;BME280;50353;51.420;5.682;2022-11-03T00:56:32;101167.13;;;13.19;70.30
64095;BME280;50353;51.420;5.682;2022-11-03T00:58:59;101161.72;;;12.94;70.59
64095;BME280;50353;51.420;5.682;2022-11-03T01:01:33;101158.88;;;12.97;70.22
64095;BME280;50353;51.420;5.682;2022-11-03T01:03:59;101164.84;;;12.59;72.43
64095;BME280;50353;51.420;5.682;2022-11-03T01:06:45;101155.28;;;12.98;71.01
64095;BME280;50353;51.420;5.682;2022-11-03T01:09:35;101151.31;;;12.91;70.78
64095;BME280;50353;51.420;5.682;2022-11-03T01:12:02;101143.31;;;13.05;70.09
64095;BME280;50353;51.420;5.682;2022-11-03T01:14:53;101144.38;;;13.15;70.11
64095;BME280;50353;51.420;5.682;2022-11-03T01:17:24;101135.50;;;12.47;71.84
64095;BME280;50353;51.420;5.682;2022-11-03T01:19:49;101145.88;;;12.65;71.60
64095;BME280;50353;51.420;5.682;2022-11-03T01:22:15;101147.06;;;12.46;72.65
64095;BME280;50353;51.420;5.682;2022-11-03T01:24:42;101135.22;;;12.38;72.89
64095;BME280;50353;51.420;5.682;2022-11-03T01:27:08;101132.47;;;13.08;70.21
64095;BME280;50353;51.420;5.682;2022-11-03T01:29:34;101124.63;;;13.07;70.81
64095;BME280;50353;51.420;5.682;2022-11-03T01:31:59;101124.84;;;13.04;70.17
64095;BME280;50353;51.420;5.682;2022-11-03T01:34:24;101119.72;;;13.00;70.14
64095;BME280;50353;51.420;5.682;2022-11-03T01:36:50;101119.00;;;13.11;70.05
64095;BME280;50353;51.420;5.682;2022-11-03T01:39:17;101116.72;;;12.65;71.81
64095;BME280;50353;51.420;5.682;2022-11-03T01:41:45;101112.19;;;12.67;72.35
64095;BME280;50353;51.420;5.682;2022-11-03T01:46:50;101098.84;;;12.54;72.60
64095;BME280;50353;51.420;5.682;2022-11-03T01:52:18;101090.22;;;13.05;70.51
64095;BME280;50353;51.420;5.682;2022-11-03T01:54:50;101095.84;;;12.73;71.89
64095;BME280;50353;51.420;5.682;2022-11-03T01:57:23;101100.91;;;12.63;72.62
64095;BME280;50353;51.420;5.682;2022-11-03T01:59:50;101090.66;;;12.72;72.09
64095;BME280;50353;51.420;5.682;2022-11-03T02:02:15;101077.13;;;12.62;73.15
64095;BME280;50353;51.420;5.682;2022-11-03T02:04:41;101070.13;;;12.61;73.27
64095;BME280;50353;51.420;5.682;2022-11-03T02:09:32;101060.66;;;12.84;72.20
64095;BME280;50353;51.420;5.682;2022-11-03T02:11:58;101070.31;;;12.85;72.20
64095;BME280;50353;51.420;5.682;2022-11-03T02:14:42;101056.47;;;12.67;72.78
64095;BME280;50353;51.420;5.682;2022-11-03T02:17:09;101046.59;;;12.69;73.14
64095;BME280;50353;51.420;5.682;2022-11-03T02:19:43;101057.56;;;12.77;72.90
64095;BME280;50353;51.420;5.682;2022-11-03T02:22:32;101053.13;;;12.91;71.98
64095;BME280;50353;51.420;5.682;2022-11-03T02:27:27;101051.84;;;12.83;72.45
64095;BME280;50353;51.420;5.682;2022-11-03T02:29:53;101052.06;;;12.80;72.84
64095;BME280;50353;51.420;5.682;2022-11-03T02:32:29;101048.91;;;12.61;73.86
64095;BME280;50353;51.420;5.682;2022-11-03T02:35:06;101048.38;;;12.96;72.59
64095;BME280;50353;51.420;5.682;2022-11-03T02:37:36;101038.81;;;12.93;72.67
64095;BME280;50353;51.420;5.682;2022-11-03T02:40:11;101039.66;;;12.81;73.29
64095;BME280;50353;51.420;5.682;2022-11-03T02:42:41;101035.72;;;12.87;73.11
64095;BME280;50353;51.420;5.682;2022-11-03T02:45:11;101026.94;;;12.86;73.48
64095;BME280;50353;51.420;5.682;2022-11-03T02:47:38;101024.38;;;12.84;73.63
64095;BME280;50353;51.420;5.682;2022-11-03T02:50:06;101018.47;;;13.07;73.22
64095;BME280;50353;51.420;5.682;2022-11-03T02:52:43;100996.47;;;13.05;72.73
64095;BME280;50353;51.420;5.682;2022-11-03T02:55:34;101007.41;;;12.87;73.86
64095;BME280;50353;51.420;5.682;2022-11-03T02:58:10;101011.03;;;13.25;73.05
64095;BME280;50353;51.420;5.682;2022-11-03T03:03:17;101002.94;;;13.00;74.02
64095;BME280;50353;51.420;5.682;2022-11-03T03:05:45;100997.13;;;12.95;73.52
64095;BME280;50353;51.420;5.682;2022-11-03T03:08:11;100998.94;;;13.21;72.55
64095;BME280;50353;51.420;5.682;2022-11-03T03:10:41;100986.19;;;13.00;73.61
64095;BME280;50353;51.420;5.682;2022-11-03T03:13:09;100991.19;;;13.17;72.90
64095;BME280;50353;51.420;5.682;2022-11-03T03:15:58;100984.06;;;13.05;73.33
64095;BME280;50353;51.420;5.682;2022-11-03T03:18:39;100988.72;;;12.89;73.72
64095;BME280;50353;51.420;5.682;2022-11-03T03:21:17;100976.84;;;12.94;73.87
64095;BME280;50353;51.420;5.682;2022-11-03T03:23:49;100970.13;;;12.63;75.70
64095;BME280;50353;51.420;5.682;2022-11-03T03:28:49;100966.22;;;13.07;73.66
64095;BME280;50353;51.420;5.682;2022-11-03T03:31:18;100955.31;;;13.12;73.72
64095;BME280;50353;51.420;5.682;2022-11-03T03:33:46;100958.59;;;13.15;73.26
64095;BME280;50353;51.420;5.682;2022-11-03T03:36:16;100964.66;;;13.17;73.69
64095;BME280;50353;51.420;5.682;2022-11-03T03:38:55;100959.88;;;13.10;73.59
64095;BME280;50353;51.420;5.682;2022-11-03T03:41:24;100962.56;;;13.35;72.50
64095;BME280;50353;51.420;5.682;2022-11-03T03:43:56;100953.19;;;12.91;74.48
64095;BME280;50353;51.420;5.682;2022-11-03T03:46:28;100948.78;;;12.77;75.27
64095;BME280;50353;51.420;5.682;2022-11-03T03:48:55;100940.44;;;12.43;76.74
64095;BME280;50353;51.420;5.682;2022-11-03T03:51:22;100949.28;;;12.57;76.10
64095;BME280;50353;51.420;5.682;2022-11-03T03:53:50;100939.97;;;12.24;77.81
64095;BME280;50353;51.420;5.682;2022-11-03T03:56:20;100938.84;;;12.68;76.36
64095;BME280;50353;51.420;5.682;2022-11-03T03:58:47;100943.88;;;12.58;76.88
64095;BME280;50353;51.420;5.682;2022-11-03T04:01:12;100932.88;;;12.64;76.32
64095;BME280;50353;51.420;5.682;2022-11-03T04:03:38;100927.44;;;12.53;76.93
64095;BME280;50353;51.420;5.682;2022-11-03T04:06:03;100926.72;;;12.64;76.63
64095;BME280;50353;51.420;5.682;2022-11-03T04:08:28;100928.78;;;12.86;75.56
64095;BME280;50353;51.420;5.682;2022-11-03T04:10:53;100926.91;;;12.48;77.35
64095;BME280;50353;51.420;5.682;2022-11-03T04:13:38;100928.91;;;12.44;78.08
64095;BME280;50353;51.420;5.682;2022-11-03T04:16:21;100922.72;;;12.31;78.62
64095;BME280;50353;51.420;5.682;2022-11-03T04:19:10;100921.00;;;12.57;77.65
64095;BME280;50353;51.420;5.682;2022-11-03T04:21:54;100923.09;;;12.52;78.08
64095;BME280;50353;51.420;5.682;2022-11-03T04:24:38;100920.69;;;13.13;76.22
64095;BME280;50353;51.420;5.682;2022-11-03T04:29:47;100907.09;;;12.66;77.90
64095;BME280;50353;51.420;5.682;2022-11-03T04:32:15;100902.34;;;12.84;77.38
64095;BME280;50353;51.420;5.682;2022-11-03T04:34:41;100903.19;;;12.72;77.87
64095;BME280;50353;51.420;5.682;2022-11-03T04:37:11;100892.88;;;12.55;78.83
64095;BME280;50353;51.420;5.682;2022-11-03T04:39:37;100897.31;;;12.54;79.01
64095;BME280;50353;51.420;5.682;2022-11-03T04:42:15;100889.94;;;12.72;78.24
64095;BME280;50353;51.420;5.682;2022-11-03T04:44:41;100872.38;;;12.57;78.87
64095;BME280;50353;51.420;5.682;2022-11-03T04:47:09;100878.88;;;12.65;78.61
64095;BME280;50353;51.420;5.682;2022-11-03T04:49:35;100873.69;;;12.64;78.63
64095;BME280;50353;51.420;5.682;2022-11-03T04:52:00;100881.44;;;12.67;78.42
64095;BME280;50353;51.420;5.682;2022-11-03T04:54:26;100878.84;;;12.52;79.28
64095;BME280;50353;51.420;5.682;2022-11-03T04:56:51;100879.06;;;12.37;80.26
64095;BME280;50353;51.420;5.682;2022-11-03T04:59:16;100874.16;;;12.43;80.26
64095;BME280;50353;51.420;5.682;2022-11-03T05:01:43;100866.44;;;12.27;80.88
64095;BME280;50353;51.420;5.682;2022-11-03T05:04:14;100872.06;;;12.36;81.08
64095;BME280;50353;51.420;5.682;2022-11-03T05:06:40;100856.69;;;12.54;80.28
64095;BME280;50353;51.420;5.682;2022-11-03T05:09:14;100849.38;;;12.44;80.52
64095;BME280;50353;51.420;5.682;2022-11-03T05:11:42;100848.41;;;12.45;80.66
64095;BME280;50353;51.420;5.682;2022-11-03T05:14:20;100842.91;;;12.48;80.00
64095;BME280;50353;51.420;5.682;2022-11-03T05:16:47;100845.84;;;12.31;81.38
64095;BME280;50353;51.420;5.682;2022-11-03T05:19:19;100843.53;;;12.39;81.28
64095;BME280;50353;51.420;5.682;2022-11-03T05:21:46;100839.94;;;12.53;80.79
64095;BME280;50353;51.420;5.682;2022-11-03T05:24:14;100845.22;;;12.40;81.20
64095;BME280;50353;51.420;5.682;2022-11-03T05:26:41;100839.09;;;12.40;80.88
64095;BME280;50353;51.420;5.682;2022-11-03T05:29:33;100826.34;;;12.32;81.24
64095;BME280;50353;51.420;5.682;2022-11-03T05:31:59;100826.06;;;12.37;81.48
64095;BME280;50353;51.420;5.682;2022-11-03T05:34:34;100819.88;;;12.36;81.07
64095;BME280;50353;51.420;5.682;2022-11-03T05:37:27;100806.94;;;12.31;81.54
64095;BME280;50353;51.420;5.682;2022-11-03T05:39:56;100807.72;;;12.46;81.01
64095;BME280;50353;51.420;5.682;2022-11-03T05:44:49;100802.16;;;12.24;82.02
64095;BME280;50353;51.420;5.682;2022-11-03T05:47:21;100798.25;;;12.29;82.22
64095;BME280;50353;51.420;5.682;2022-11-03T05:49:49;100796.53;;;12.28;82.65
64095;BME280;50353;51.420;5.682;2022-11-03T05:52:18;100792.53;;;12.36;81.76
64095;BME280;50353;51.420;5.682;2022-11-03T05:54:45;100789.56;;;12.40;81.71
64095;BME280;50353;51.420;5.682;2022-11-03T05:57:13;100780.94;;;12.62;80.49
64095;BME280;50353;51.420;5.682;2022-11-03T05:59:38;100782.34;;;12.55;80.60
64095;BME280;50353;51.420;5.682;2022-11-03T06:02:19;100772.69;;;12.28;82.73
64095;BME280;50353;51.420;5.682;2022-11-03T06:04:48;100781.28;;;12.19;83.77
64095;BME280;50353;51.420;5.682;2022-11-03T06:07:22;100770.47;;;12.35;82.74
64095;BME280;50353;51.420;5.682;2022-11-03T06:09:48;100775.13;;;12.44;82.48
64095;BME280;50353;51.420;5.682;2022-11-03T06:12:17;100775.25;;;12.56;82.55
64095;BME280;50353;51.420;5.682;2022-11-03T06:14:43;100768.25;;;12.42;82.87
64095;BME280;50353;51.420;5.682;2022-11-03T06:17:23;100755.00;;;12.29;83.24
64095;BME280;50353;51.420;5.682;2022-11-03T06:19:52;100761.16;;;12.42;82.65
64095;BME280;50353;51.420;5.682;2022-11-03T06:22:21;100756.03;;;12.39;82.89
64095;BME280;50353;51.420;5.682;2022-11-03T06:24:49;100752.88;;;12.34;83.08
64095;BME280;50353;51.420;5.682;2022-11-03T06:27:20;100752.88;;;12.34;82.35
64095;BME280;50353;51.420;5.682;2022-11-03T06:29:55;100731.38;;;12.26;82.58
64095;BME280;50353;51.420;5.682;2022-11-03T06:32:21;100739.31;;;12.26;83.54
64095;BME280;50353;51.420;5.682;2022-11-03T06:34:49;100732.94;;;12.15;83.26
64095;BME280;50353;51.420;5.682;2022-11-03T06:37:25;100730.50;;;12.25;83.46
64095;BME280;50353;51.420;5.682;2022-11-03T06:39:53;100738.25;;;12.41;82.55
64095;BME280;50353;51.420;5.682;2022-11-03T06:42:21;100735.69;;;12.40;82.52
64095;BME280;50353;51.420;5.682;2022-11-03T06:44:49;100723.41;;;12.26;83.22
64095;BME280;50353;51.420;5.682;2022-11-03T06:47:25;100721.38;;;12.04;83.71
64095;BME280;50353;51.420;5.682;2022-11-03T06:49:56;100730.94;;;12.19;83.41
64095;BME280;50353;51.420;5.682;2022-11-03T06:52:23;100723.91;;;12.31;82.67
64095;BME280;50353;51.420;5.682;2022-11-03T06:54:53;100724.91;;;12.30;82.93
64095;BME280;50353;51.420;5.682;2022-11-03T06:57:19;100728.91;;;12.36;82.32
64095;BME280;50353;51.420;5.682;2022-11-03T06:59:44;100719.91;;;12.25;82.95
64095;BME280;50353;51.420;5.682;2022-11-03T07:02:53;100720.09;;;12.35;82.61
64095;BME280;50353;51.420;5.682;2022-11-03T07:05:23;100711.84;;;12.27;83.04
64095;BME280;50353;51.420;5.682;2022-11-03T07:07:54;100713.31;;;12.31;83.20
64095;BME280;50353;51.420;5.682;2022-11-03T07:10:25;100722.56;;;12.38;82.70
64095;BME280;50353;51.420;5.682;2022-11-03T07:12:51;100714.16;;;12.18;83.75
64095;BME280;50353;51.420;5.682;2022-11-03T07:15:23;100722.88;;;12.21;84.30
64095;BME280;50353;51.420;5.682;2022-11-03T07:17:50;100723.91;;;12.31;83.66
64095;BME280;50353;51.420;5.682;2022-11-03T07:20:16;100727.41;;;12.44;83.08
64095;BME280;50353;51.420;5.682;2022-11-03T07:22:42;100717.34;;;12.49;82.46
64095;BME280;50353;51.420;5.682;2022-11-03T07:25:13;100715.22;;;12.55;82.24
64095;BME280;50353;51.420;5.682;2022-11-03T07:27:40;100714.06;;;12.59;81.94
64095;BME280;50353;51.420;5.682;2022-11-03T07:32:38;100701.66;;;12.46;82.90
64095;BME280;50353;51.420;5.682;2022-11-03T07:35:32;100689.63;;;12.66;81.69
64095;BME280;50353;51.420;5.682;2022-11-03T07:38:01;100692.78;;;12.84;80.50
64095;BME280;50353;51.420;5.682;2022-11-03T07:40:30;100679.41;;;12.73;80.83
64095;BME280;50353;51.420;5.682;2022-11-03T07:43:01;100672.31;;;12.74;81.28
64095;BME280;50353;51.420;5.682;2022-11-03T07:45:47;100668.03;;;12.60;81.43
64095;BME280;50353;51.420;5.682;2022-11-03T07:48:34;100678.69;;;12.71;81.67
64095;BME280;50353;51.420;5.682;2022-11-03T07:51:19;100681.75;;;12.78;80.07
64095;BME280;50353;51.420;5.682;2022-11-03T07:53:46;100679.88;;;12.67;81.18
64095;BME280;50353;51.420;5.682;2022-11-03T07:56:14;100684.28;;;12.42;82.70
64095;BME280;50353;51.420;5.682;2022-11-03T07:58:41;100686.66;;;12.71;81.11
64095;BME280;50353;51.420;5.682;2022-11-03T08:01:26;100685.06;;;12.68;81.28
64095;BME280;50353;51.420;5.682;2022-11-03T08:03:56;100685.31;;;12.90;80.13
64095;BME280;50353;51.420;5.682;2022-11-03T08:06:23;100684.81;;;12.84;80.12
64095;BME280;50353;51.420;5.682;2022-11-03T08:08:48;100679.88;;;12.67;81.47
64095;BME280;50353;51.420;5.682;2022-11-03T08:11:13;100680.97;;;12.89;80.85
64095;BME280;50353;51.420;5.682;2022-11-03T08:13:38;100679.53;;;12.72;81.44
64095;BME280;50353;51.420;5.682;2022-11-03T08:16:04;100675.19;;;12.71;81.29
64095;BME280;50353;51.420;5.682;2022-11-03T08:18:30;100667.91;;;12.85;80.19
64095;BME280;50353;51.420;5.682;2022-11-03T08:20:55;100658.19;;;12.73;81.08
64095;BME280;50353;51.420;5.682;2022-11-03T08:23:20;100650.81;;;12.90;79.95
64095;BME280;50353;51.420;5.682;2022-11-03T08:25:45;100654.78;;;12.84;80.86
64095;BME280;50353;51.420;5.682;2022-11-03T08:28:11;100643.84;;;12.89;80.38
64095;BME280;50353;51.420;5.682;2022-11-03T08:30:36;100644.41;;;13.05;79.54
64095;BME280;50353;51.420;5.682;2022-11-03T08:33:02;100624.16;;;13.15;78.74
64095;BME280;50353;51.420;5.682;2022-11-03T08:35:27;100629.75;;;13.48;77.82
64095;BME280;50353;51.420;5.682;2022-11-03T08:37:53;100621.91;;;13.22;78.60
64095;BME280;50353;51.420;5.682;2022-11-03T08:40:18;100624.13;;;13.04;79.61
64095;BME280;50353;51.420;5.682;2022-11-03T08:42:43;100616.91;;;13.06;79.24
64095;BME280;50353;51.420;5.682;2022-11-03T08:45:09;100607.38;;;13.04;79.52
64095;BME280;50353;51.420;5.682;2022-11-03T08:47:35;100596.75;;;13.04;79.70
64095;BME280;50353;51.420;5.682;2022-11-03T08:50:00;100596.53;;;13.07;80.01
64095;BME280;50353;51.420;5.682;2022-11-03T08:52:26;100587.00;;;13.15;78.85
64095;BME280;50353;51.420;5.682;2022-11-03T08:54:51;100564.50;;;13.32;78.37
64095;BME280;50353;51.420;5.682;2022-11-03T08:57:16;100560.66;;;13.25;78.70
64095;BME280;50353;51.420;5.682;2022-11-03T08:59:42;100551.88;;;13.36;77.32
64095;BME280;50353;51.420;5.682;2022-11-03T09:02:07;100544.59;;;13.27;78.56
64095;BME280;50353;51.420;5.682;2022-11-03T09:04:32;100545.03;;;13.45;77.65
64095;BME280;50353;51.420;5.682;2022-11-03T09:06:57;100539.59;;;13.58;76.66
64095;BME280;50353;51.420;5.682;2022-11-03T09:09:23;100529.94;;;13.68;76.69
64095;BME280;50353;51.420;5.682;2022-11-03T09:11:48;100521.59;;;13.95;75.47
64095;BME280;50353;51.420;5.682;2022-11-03T09:14:14;100521.72;;;14.05;74.51
64095;BME280;50353;51.420;5.682;2022-11-03T09:16:39;100515.94;;;13.89;75.05
64095;BME280;50353;51.420;5.682;2022-11-03T09:19:04;100504.25;;;13.80;75.84
64095;BME280;50353;51.420;5.682;2022-11-03T09:21:30;100495.16;;;13.82;75.66
64095;BME280;50353;51.420;5.682;2022-11-03T09:23:55;100489.59;;;13.74;76.17
64095;BME280;50353;51.420;5.682;2022-11-03T09:26:23;100490.34;;;13.76;75.31
64095;BME280;50353;51.420;5.682;2022-11-03T09:28:49;100488.19;;;13.81;75.51
64095;BME280;50353;51.420;5.682;2022-11-03T09:31:15;100466.19;;;13.91;75.18
64095;BME280;50353;51.420;5.682;2022-11-03T09:33:40;100467.41;;;13.86;74.79
64095;BME280;50353;51.420;5.682;2022-11-03T09:36:06;100455.22;;;14.16;74.20
64095;BME280;50353;51.420;5.682;2022-11-03T09:38:31;100457.97;;;13.82;74.60
64095;BME280;50353;51.420;5.682;2022-11-03T09:40:57;100458.78;;;13.94;74.25
64095;BME280;50353;51.420;5.682;2022-11-03T09:43:22;100441.50;;;14.00;73.10
64095;BME280;50353;51.420;5.682;2022-11-03T09:45:47;100439.22;;;13.95;74.32
64095;BME280;50353;51.420;5.682;2022-11-03T09:48:13;100434.63;;;13.97;73.75
64095;BME280;50353;51.420;5.682;2022-11-03T09:50:38;100435.41;;;14.20;72.56
64095;BME280;50353;51.420;5.682;2022-11-03T09:53:04;100437.97;;;14.22;71.85
64095;BME280;50353;51.420;5.682;2022-11-03T09:55:31;100431.34;;;14.05;73.31
64095;BME280;50353;51.420;5.682;2022-11-03T09:58:00;100427.00;;;14.04;72.80
64095;BME280;50353;51.420;5.682;2022-11-03T10:00:26;100412.69;;;14.16;71.65
64095;BME280;50353;51.420;5.682;2022-11-03T10:02:52;100416.97;;;14.08;72.28
64095;BME280;50353;51.420;5.682;2022-11-03T10:05:22;100410.25;;;13.92;73.05
64095;BME280;50353;51.420;5.682;2022-11-03T10:07:48;100397.59;;;13.84;73.14
64095;BME280;50353;51.420;5.682;2022-11-03T10:10:19;100408.22;;;13.84;73.57
64095;BME280;50353;51.420;5.682;2022-11-03T10:12:47;100397.97;;;13.80;73.96
64095;BME280;50353;51.420;5.682;2022-11-03T10:15:14;100397.81;;;13.93;73.56
64095;BME280;50353;51.420;5.682;2022-11-03T10:17:40;100396.59;;;13.97;72.94
64095;BME280;50353;51.420;5.682;2022-11-03T10:20:09;100382.75;;;14.14;72.88
64095;BME280;50353;51.420;5.682;2022-11-03T10:22:35;100378.66;;;14.10;72.39
64095;BME280;50353;51.420;5.682;2022-11-03T10:28:20;100373.81;;;14.15;71.54
64095;BME280;50353;51.420;5.682;2022-11-03T10:31:06;100355.09;;;14.06;71.94
64095;BME280;50353;51.420;5.682;2022-11-03T10:33:52;100350.53;;;14.08;71.50
64095;BME280;50353;51.420;5.682;2022-11-03T10:38:44;100337.09;;;14.09;71.59
64095;BME280;50353;51.420;5.682;2022-11-03T10:41:12;100336.41;;;14.07;71.25
64095;BME280;50353;51.420;5.682;2022-11-03T10:43:39;100329.06;;;14.20;71.17
64095;BME280;50353;51.420;5.682;2022-11-03T10:46:14;100314.41;;;14.05;72.80
64095;BME280;50353;51.420;5.682;2022-11-03T10:48:40;100320.91;;;14.12;71.74
64095;BME280;50353;51.420;5.682;2022-11-03T10:51:10;100309.50;;;14.22;71.42
64095;BME280;50353;51.420;5.682;2022-11-03T10:53:35;100315.94;;;14.40;70.01
64095;BME280;50353;51.420;5.682;2022-11-03T10:56:01;100305.66;;;14.35;71.40
64095;BME280;50353;51.420;5.682;2022-11-03T10:58:27;100320.00;;;14.44;70.75
64095;BME280;50353;51.420;5.682;2022-11-03T11:00:52;100320.56;;;14.48;69.49
64095;BME280;50353;51.420;5.682;2022-11-03T11:03:18;100310.94;;;14.26;70.55
64095;BME280;50353;51.420;5.682;2022-11-03T11:05:44;100304.19;;;14.43;69.64
64095;BME280;50353;51.420;5.682;2022-11-03T11:08:16;100318.25;;;14.76;69.16
64095;BME280;50353;51.420;5.682;2022-11-03T11:10:44;100306.19;;;14.50;69.98
64095;BME280;50353;51.420;5.682;2022-11-03T11:20:53;100294.69;;;15.02;68.04
64095;BME280;50353;51.420;5.682;2022-11-03T11:28:44;100296.88;;;15.28;66.36
64095;BME280;50353;51.420;5.682;2022-11-03T11:42:13;100255.84;;;14.90;67.89
64095;BME280;50353;51.420;5.682;2022-11-03T11:47:29;100227.25;;;14.82;68.15
64095;BME280;50353;51.420;5.682;2022-11-03T11:52:44;100198.44;;;14.97;67.57
64095;BME280;50353;51.420;5.682;2022-11-03T11:55:24;100203.22;;;15.03;66.38
64095;BME280;50353;51.420;5.682;2022-11-03T11:57:51;100190.28;;;14.88;66.69
64095;BME280;50353;51.420;5.682;2022-11-03T12:00:22;100203.84;;;14.76;67.53
64095;BME280;50353;51.420;5.682;2022-11-03T12:02:50;100192.72;;;15.01;66.60
64095;BME280;50353;51.420;5.682;2022-11-03T12:05:27;100184.72;;;14.92;66.24
64095;BME280;50353;51.420;5.682;2022-11-03T12:07:54;100183.31;;;14.87;67.11
64095;BME280;50353;51.420;5.682;2022-11-03T12:10:25;100156.44;;;15.10;65.70
64095;BME280;50353;51.420;5.682;2022-11-03T12:12:51;100150.28;;;15.19;65.69
64095;BME280;50353;51.420;5.682;2022-11-03T12:15:54;100153.47;;;15.13;66.22
64095;BME280;50353;51.420;5.682;2022-11-03T12:18:37;100148.16;;;15.03;65.24
64095;BME280;50353;51.420;5.682;2022-11-03T12:21:08;100141.44;;;15.09;65.57
64095;BME280;50353;51.420;5.682;2022-11-03T12:23:44;100132.75;;;14.87;66.55
64095;BME280;50353;51.420;5.682;2022-11-03T12:28:58;100125.47;;;15.09;66.14
64095;BME280;50353;51.420;5.682;2022-11-03T12:31:23;100114.41;;;15.04;65.88
64095;BME280;50353;51.420;5.682;2022-11-03T12:33:49;100116.63;;;15.18;65.86
64095;BME280;50353;51.420;5.682;2022-11-03T12:36:14;100103.75;;;15.04;66.69
64095;BME280;50353;51.420;5.682;2022-11-03T12:38:39;100100.25;;;14.94;67.07
64095;BME280;50353;51.420;5.682;2022-11-03T12:41:05;100092.69;;;15.18;66.49
64095;BME280;50353;51.420;5.682;2022-11-03T12:43:47;100091.13;;;15.16;66.08
64095;BME280;50353;51.420;5.682;2022-11-03T12:46:14;100077.84;;;14.96;67.81
64095;BME280;50353;51.420;5.682;2022-11-03T12:48:40;100076.72;;;15.18;66.36
64095;BME280;50353;51.420;5.682;2022-11-03T12:51:09;100068.72;;;15.18;66.21
64095;BME280;50353;51.420;5.682;2022-11-03T12:53:35;100066.34;;;15.25;66.17
64095;BME280;50353;51.420;5.682;2022-11-03T12:56:00;100059.88;;;15.37;65.74
64095;BME280;50353;51.420;5.682;2022-11-03T12:58:25;100058.19;;;15.36;66.22
64095;BME280;50353;51.420;5.682;2022-11-03T13:00:51;100047.97;;;15.32;66.74
64095;BME280;50353;51.420;5.682;2022-11-03T13:03:16;100039.28;;;15.40;66.07
64095;BME280;50353;51.420;5.682;2022-11-03T13:05:41;100033.09;;;15.39;65.82
64095;BME280;50353;51.420;5.682;2022-11-03T13:08:06;100032.56;;;15.35;65.97
64095;BME280;50353;51.420;5.682;2022-11-03T13:10:32;100016.03;;;15.22;66.35
64095;BME280;50353;51.420;5.682;2022-11-03T13:12:57;100014.47;;;15.29;65.83
64095;BME280;50353;51.420;5.682;2022-11-03T13:15:22;100000.75;;;15.34;66.16
64095;BME280;50353;51.420;5.682;2022-11-03T13:17:48;99994.63;;;15.14;66.25
64095;BME280;50353;51.420;5.682;2022-11-03T13:20:14;99996.28;;;15.25;66.27
64095;BME280;50353;51.420;5.682;2022-11-03T13:22:40;99990.25;;;15.13;66.54
64095;BME280;50353;51.420;5.682;2022-11-03T13:25:05;99985.78;;;15.13;67.33
64095;BME280;50353;51.420;5.682;2022-11-03T13:27:31;99985.09;;;15.11;67.47
64095;BME280;50353;51.420;5.682;2022-11-03T13:29:56;99974.34;;;14.93;67.25
64095;BME280;50353;51.420;5.682;2022-11-03T13:32:21;99963.97;;;15.00;67.74
64095;BME280;50353;51.420;5.682;2022-11-03T13:34:47;99965.34;;;15.04;67.67
64095;BME280;50353;51.420;5.682;2022-11-03T13:37:12;99959.75;;;15.07;67.51
64095;BME280;50353;51.420;5.682;2022-11-03T13:39:37;99963.97;;;15.00;67.49
64095;BME280;50353;51.420;5.682;2022-11-03T13:42:02;99953.06;;;14.93;68.66
64095;BME280;50353;51.420;5.682;2022-11-03T13:44:28;99949.13;;;14.97;68.30
64095;BME280;50353;51.420;5.682;2022-11-03T13:46:53;99945.19;;;15.01;68.30
64095;BME280;50353;51.420;5.682;2022-11-03T13:49:19;99931.75;;;15.03;67.88
64095;BME280;50353;51.420;5.682;2022-11-03T13:51:46;99936.53;;;14.90;68.08
64095;BME280;50353;51.420;5.682;2022-11-03T13:54:11;99947.63;;;14.75;69.56
64095;BME280;50353;51.420;5.682;2022-11-03T13:56:37;99941.84;;;14.60;71.28
64095;BME280;50353;51.420;5.682;2022-11-03T13:59:02;99955.59;;;14.75;71.70
64095;BME280;50353;51.420;5.682;2022-11-03T14:01:28;99961.44;;;14.49;72.28
64095;BME280;50353;51.420;5.682;2022-11-03T14:03:54;99964.25;;;14.58;72.65